Time;durP1;ratioP1;P1;durP2;ratioP2;P2;SDS_P1;SDS_P2;PMS_P1;PMS_P2;Temp;Humidity;BMP_temperature;BMP_pressure;BME280_temperature;BME280_humidity;BME280_pressure;Samples;Min_cycle;Max_cycle;Signal;HPM_P1;HPM_P2
2022/04/05 00:00:44;;;;;;;14.77;9.67;;;0.80;99.90;;;;;;5049591;28;20243;-69
2022/04/05 00:03:11;;;;;;;15.43;8.73;;;0.80;99.90;;;;;;5050110;28;20623;-69
2022/04/05 00:05:38;;;;;;;15.83;9.33;;;0.80;99.90;;;;;;5049991;28;20241;-68
2022/04/05 00:08:05;;;;;;;15.40;9.50;;;0.80;99.90;;;;;;5049598;28;20241;-68
2022/04/05 00:10:34;;;;;;;17.47;9.70;;;0.80;99.90;;;;;;5049936;28;20240;-68
2022/04/05 00:13:04;;;;;;;18.33;9.93;;;0.80;99.90;;;;;;5049347;28;20213;-70
2022/04/05 00:15:31;;;;;;;15.63;9.67;;;0.80;99.90;;;;;;5049791;28;20212;-68
2022/04/05 00:17:58;;;;;;;16.27;9.67;;;0.80;99.90;;;;;;5049391;28;20534;-70
2022/04/05 00:20:27;;;;;;;14.60;9.43;;;0.80;99.90;;;;;;5049723;28;20297;-69
2022/04/05 00:22:54;;;;;;;14.47;9.17;;;0.70;99.90;;;;;;5049630;28;20212;-68
2022/04/05 00:25:21;;;;;;;15.10;9.60;;;0.70;99.90;;;;;;5049417;28;20296;-69
2022/04/05 00:27:49;;;;;;;15.53;9.40;;;0.70;99.90;;;;;;5049562;28;20638;-69
2022/04/05 00:30:16;;;;;;;15.30;8.93;;;0.70;99.90;;;;;;5049245;28;20241;-69
2022/04/05 00:32:43;;;;;;;15.60;9.53;;;0.70;99.90;;;;;;5049470;28;20260;-69
2022/04/05 00:35:11;;;;;;;15.30;9.80;;;0.70;99.90;;;;;;5049672;28;20288;-68
2022/04/05 00:37:38;;;;;;;15.50;9.70;;;0.70;99.90;;;;;;5049245;28;20282;-68
2022/04/05 00:40:07;;;;;;;13.93;9.13;;;0.70;99.90;;;;;;5049261;28;20649;-68
2022/04/05 00:42:36;;;;;;;15.50;9.40;;;0.70;99.90;;;;;;5049350;28;20248;-68
2022/04/05 00:45:05;;;;;;;14.93;8.73;;;0.70;99.90;;;;;;5049060;28;20212;-69
2022/04/05 00:47:32;;;;;;;13.23;9.07;;;0.60;99.90;;;;;;5049424;28;20237;-69
2022/04/05 00:49:59;;;;;;;14.07;8.53;;;0.60;99.90;;;;;;5049353;28;20614;-68
2022/04/05 00:52:27;;;;;;;11.73;8.37;;;0.60;99.90;;;;;;5048940;28;20261;-68
2022/04/05 00:54:56;;;;;;;12.20;8.07;;;0.60;99.90;;;;;;5049132;28;20209;-69
2022/04/05 00:57:24;;;;;;;11.67;7.77;;;0.60;99.90;;;;;;5048975;28;20507;-68
2022/04/05 00:59:56;;;;;;;15.63;8.73;;;0.60;99.90;;;;;;5049130;28;20205;-70
2022/04/05 01:02:28;;;;;;;13.73;8.33;;;0.60;99.90;;;;;;5048119;28;20632;-69
2022/04/05 01:04:56;;;;;;;12.20;8.27;;;0.60;99.90;;;;;;5049090;28;20678;-69
2022/04/05 01:07:23;;;;;;;16.37;8.93;;;0.60;99.90;;;;;;5048842;28;20301;-68
2022/04/05 01:09:53;;;;;;;11.67;7.43;;;0.60;99.90;;;;;;5048793;28;20231;-70
2022/04/05 01:12:21;;;;;;;11.37;7.43;;;0.60;99.90;;;;;;5048783;28;20252;-68
2022/04/05 01:14:48;;;;;;;12.27;7.40;;;0.60;99.90;;;;;;5048871;28;20285;-68
2022/04/05 01:17:16;;;;;;;13.27;7.90;;;0.60;99.90;;;;;;5048783;28;20241;-68
2022/04/05 01:19:46;;;;;;;11.13;7.60;;;0.60;99.90;;;;;;5048884;28;20205;-68
2022/04/05 01:22:13;;;;;;;11.30;8.10;;;0.60;99.90;;;;;;5049024;28;20189;-68
2022/04/05 01:24:42;;;;;;;11.73;7.23;;;0.60;99.90;;;;;;5048718;28;20233;-68
2022/04/05 01:27:16;;;;;;;11.00;7.83;;;0.60;99.90;;;;;;5048775;28;20241;-68
2022/04/05 01:29:44;;;;;;;11.77;7.70;;;0.60;99.90;;;;;;5048617;28;20194;-67
2022/04/05 01:32:11;;;;;;;11.47;7.83;;;0.60;99.90;;;;;;5048434;28;20261;-69
2022/04/05 01:34:39;;;;;;;10.93;7.47;;;0.60;99.90;;;;;;5048411;28;20270;-68
2022/04/05 01:37:08;;;;;;;14.73;8.10;;;0.60;99.90;;;;;;5048523;28;20679;-70
2022/04/05 01:39:37;;;;;;;12.63;7.67;;;0.60;99.90;;;;;;5048191;28;20229;-68
2022/04/05 01:42:08;;;;;;;10.63;7.63;;;0.60;99.90;;;;;;5048762;28;20627;-69
2022/04/05 01:44:37;;;;;;;11.27;7.80;;;0.60;99.90;;;;;;5048266;28;20225;-68
2022/04/05 01:47:06;;;;;;;13.60;7.40;;;0.60;99.90;;;;;;5048464;28;20251;-69
2022/04/05 01:49:33;;;;;;;13.50;7.73;;;0.70;99.90;;;;;;5048505;28;20209;-69
2022/04/05 01:52:00;;;;;;;10.83;7.67;;;0.70;99.90;;;;;;5050686;28;20253;-68
2022/04/05 01:54:27;;;;;;;12.37;7.50;;;0.70;99.90;;;;;;5051498;28;20241;-69
2022/04/05 01:56:54;;;;;;;10.83;7.40;;;0.60;99.90;;;;;;5051421;28;20624;-68
2022/04/05 01:59:24;;;;;;;13.20;8.00;;;0.60;99.90;;;;;;5050024;28;20240;-68
2022/04/05 02:01:51;;;;;;;12.97;7.93;;;0.60;99.90;;;;;;5049532;28;20671;-68
2022/04/05 02:04:18;;;;;;;12.37;7.77;;;0.70;99.90;;;;;;5048536;28;20247;-69
2022/04/05 02:06:46;;;;;;;11.87;7.70;;;0.70;99.90;;;;;;5048153;28;20297;-68
2022/04/05 02:09:14;;;;;;;12.77;7.47;;;0.70;99.90;;;;;;5048300;28;20653;-67
2022/04/05 02:11:41;;;;;;;12.93;7.97;;;0.70;99.90;;;;;;5048042;28;20689;-67
2022/04/05 02:14:08;;;;;;;10.07;7.20;;;0.60;99.90;;;;;;5050362;28;20225;-67
2022/04/05 02:16:37;;;;;;;11.93;7.40;;;0.60;99.90;;;;;;5051516;28;20620;-68
2022/04/05 02:19:03;;;;;;;10.43;7.10;;;0.70;99.90;;;;;;5051210;28;20247;-68
2022/04/05 02:21:31;;;;;;;11.97;8.07;;;0.70;99.90;;;;;;5051498;28;20705;-69
2022/04/05 02:23:58;;;;;;;14.03;8.37;;;0.70;99.90;;;;;;5051664;28;20237;-68
2022/04/05 02:26:25;;;;;;;13.17;8.57;;;0.70;99.90;;;;;;5051277;28;20205;-67
2022/04/05 02:28:52;;;;;;;13.73;8.43;;;0.70;99.90;;;;;;5051249;28;20292;-68
2022/04/05 02:31:19;;;;;;;12.73;7.87;;;0.70;99.90;;;;;;5050986;28;20248;-68
2022/04/05 02:33:47;;;;;;;11.50;7.80;;;0.70;99.90;;;;;;5051479;28;20296;-68
2022/04/05 02:36:14;;;;;;;10.63;7.63;;;0.70;99.90;;;;;;5051467;28;20694;-68
2022/04/05 02:38:41;;;;;;;12.90;7.93;;;0.70;99.90;;;;;;5051069;28;20340;-69
2022/04/05 02:41:08;;;;;;;14.27;8.87;;;0.70;99.90;;;;;;5051440;28;20190;-68
2022/04/05 02:43:35;;;;;;;13.60;8.63;;;0.70;99.90;;;;;;5051169;28;20678;-69
2022/04/05 02:46:03;;;;;;;12.30;7.83;;;0.70;99.90;;;;;;5050988;28;20248;-68
2022/04/05 02:48:30;;;;;;;15.10;7.67;;;0.70;99.90;;;;;;5050779;28;20209;-68
2022/04/05 02:50:58;;;;;;;12.13;7.83;;;0.70;99.90;;;;;;5051219;28;20217;-68
2022/04/05 02:53:25;;;;;;;13.30;8.47;;;0.70;99.90;;;;;;5050893;28;20316;-69
2022/04/05 02:55:52;;;;;;;15.43;8.77;;;0.70;99.90;;;;;;5051128;28;20639;-68
2022/04/05 02:58:20;;;;;;;13.83;8.40;;;0.70;99.90;;;;;;5050581;28;20245;-69
2022/04/05 03:00:47;;;;;;;13.40;8.23;;;0.70;99.90;;;;;;5050742;28;20231;-69
2022/04/05 03:03:13;;;;;;;15.00;8.90;;;0.80;99.90;;;;;;5050915;28;20236;-68
2022/04/05 03:05:40;;;;;;;14.77;8.93;;;0.80;99.90;;;;;;5050502;28;20210;-68
2022/04/05 03:08:09;;;;;;;14.07;9.13;;;0.80;99.90;;;;;;5050928;28;20727;-68
2022/04/05 03:10:36;;;;;;;14.33;9.23;;;0.80;99.90;;;;;;5051083;28;20240;-67
2022/04/05 03:13:03;;;;;;;14.43;8.90;;;0.80;99.90;;;;;;5050712;28;20332;-68
2022/04/05 03:15:31;;;;;;;14.27;9.63;;;0.80;99.90;;;;;;5050407;28;20262;-68
2022/04/05 03:17:58;;;;;;;15.47;9.90;;;0.80;99.90;;;;;;5050510;28;20215;-68
2022/04/05 03:20:25;;;;;;;14.27;9.93;;;0.80;99.90;;;;;;5050361;28;20211;-67
2022/04/05 03:22:53;;;;;;;14.73;10.23;;;0.80;99.90;;;;;;5050725;28;20240;-68
2022/04/05 03:25:23;;;;;;;17.87;10.50;;;0.90;99.90;;;;;;5049411;28;20292;-67
2022/04/05 03:27:50;;;;;;;16.03;10.37;;;0.90;99.90;;;;;;5050440;28;20213;-68
2022/04/05 03:30:18;;;;;;;14.97;10.20;;;0.90;99.90;;;;;;5050422;28;20295;-68
2022/04/05 03:32:45;;;;;;;17.13;10.07;;;0.90;99.90;;;;;;5050124;28;20321;-67
2022/04/05 03:35:12;;;;;;;16.60;9.83;;;0.90;99.90;;;;;;5050300;28;20242;-68
2022/04/05 03:37:39;;;;;;;16.63;10.30;;;0.90;99.90;;;;;;5050534;28;20229;-68
2022/04/05 03:40:07;;;;;;;16.37;10.03;;;1.00;99.90;;;;;;5050046;28;20320;-68
2022/04/05 03:42:36;;;;;;;19.50;11.00;;;1.00;99.90;;;;;;5049902;28;20291;-69
2022/04/05 03:45:03;;;;;;;17.50;10.17;;;1.00;99.90;;;;;;5050369;28;20348;-68
2022/04/05 03:47:31;;;;;;;17.33;11.27;;;1.00;99.90;;;;;;5050315;28;20259;-68
2022/04/05 03:49:58;;;;;;;20.63;11.23;;;1.00;99.90;;;;;;5050112;28;20209;-67
2022/04/05 03:52:25;;;;;;;19.07;11.57;;;1.00;99.90;;;;;;5050014;28;20263;-68
2022/04/05 03:54:52;;;;;;;20.17;11.60;;;1.00;99.90;;;;;;5050108;28;20248;-67
2022/04/05 03:57:19;;;;;;;20.17;11.70;;;1.00;99.90;;;;;;5049759;28;20248;-68
2022/04/05 03:59:47;;;;;;;18.90;11.00;;;1.00;99.90;;;;;;5050146;28;20578;-67
2022/04/05 04:02:14;;;;;;;20.77;12.00;;;1.10;99.90;;;;;;5049914;28;20284;-68
2022/04/05 04:04:41;;;;;;;18.57;10.97;;;1.10;99.90;;;;;;5049899;28;20701;-68
2022/04/05 04:07:08;;;;;;;20.60;11.60;;;1.20;99.90;;;;;;5050059;28;20246;-68
2022/04/05 04:09:35;;;;;;;20.13;12.00;;;1.20;99.90;;;;;;5049957;28;20292;-68
2022/04/05 04:12:04;;;;;;;18.50;10.57;;;1.30;99.90;;;;;;5049523;28;20252;-68
2022/04/05 04:14:33;;;;;;;19.57;11.40;;;1.40;99.90;;;;;;5049333;28;20233;-69
2022/04/05 04:17:01;;;;;;;17.40;10.97;;;1.40;99.90;;;;;;5049956;28;20266;-68
2022/04/05 04:19:28;;;;;;;17.80;11.07;;;1.50;99.90;;;;;;5049529;28;20292;-68
2022/04/05 04:21:55;;;;;;;20.13;11.77;;;1.50;99.90;;;;;;5049753;28;20639;-70
2022/04/05 04:24:22;;;;;;;16.60;10.87;;;1.60;99.90;;;;;;5049319;28;20237;-68
2022/04/05 04:26:49;;;;;;;15.43;10.87;;;1.60;99.90;;;;;;5049677;28;20556;-68
2022/04/05 04:29:16;;;;;;;19.87;11.20;;;1.60;99.90;;;;;;5049458;28;20237;-69
2022/04/05 04:31:43;;;;;;;20.43;11.93;;;1.60;99.90;;;;;;5049295;28;20248;-69
2022/04/05 04:34:12;;;;;;;17.97;11.50;;;1.60;99.90;;;;;;5049110;28;20241;-67
2022/04/05 04:36:39;;;;;;;19.60;11.77;;;1.70;99.90;;;;;;5049012;28;20201;-68
2022/04/05 04:39:07;;;;;;;19.53;12.07;;;1.70;99.90;;;;;;5049172;28;20264;-69
2022/04/05 04:41:33;;;;;;;18.83;11.80;;;1.70;99.90;;;;;;5049439;28;20621;-68
2022/04/05 04:44:00;;;;;;;24.13;12.33;;;1.70;99.90;;;;;;5049150;28;20293;-68
2022/04/05 04:46:27;;;;;;;19.37;11.77;;;1.80;99.90;;;;;;5049383;28;20367;-69
2022/04/05 04:48:54;;;;;;;19.83;12.37;;;1.80;99.90;;;;;;5049104;28;20254;-68
2022/04/05 04:51:22;;;;;;;19.50;12.13;;;1.90;99.90;;;;;;5049207;28;20773;-68
2022/04/05 04:53:49;;;;;;;18.93;11.83;;;1.90;99.90;;;;;;5049503;28;20707;-69
2022/04/05 04:56:16;;;;;;;23.27;12.60;;;1.90;99.90;;;;;;5048843;28;20256;-69
2022/04/05 04:58:44;;;;;;;19.63;12.50;;;1.90;99.90;;;;;;5049111;28;20229;-68
2022/04/05 05:01:11;;;;;;;20.00;12.20;;;2.00;99.90;;;;;;5048973;28;20596;-68
2022/04/05 05:03:38;;;;;;;22.30;12.37;;;2.00;99.90;;;;;;5049192;28;20398;-69
2022/04/05 05:06:05;;;;;;;22.53;12.70;;;2.10;99.90;;;;;;5049093;28;20687;-68
2022/04/05 05:08:34;;;;;;;19.10;12.07;;;2.10;99.90;;;;;;5049130;28;20542;-68
2022/04/05 05:11:01;;;;;;;20.60;12.47;;;2.10;99.90;;;;;;5049018;28;20216;-69
2022/04/05 05:13:28;;;;;;;21.63;12.63;;;2.10;99.90;;;;;;5048497;28;20277;-69
2022/04/05 05:15:55;;;;;;;21.50;12.03;;;2.20;99.90;;;;;;5049130;28;20216;-68
2022/04/05 05:18:22;;;;;;;19.27;12.93;;;2.20;99.90;;;;;;5048357;28;20296;-68
2022/04/05 05:20:49;;;;;;;19.47;11.77;;;2.30;99.90;;;;;;5048943;28;20232;-67
2022/04/05 05:23:16;;;;;;;19.17;11.63;;;2.40;99.90;;;;;;5048467;28;20205;-68
2022/04/05 05:25:45;;;;;;;18.37;11.97;;;2.40;99.90;;;;;;5048961;28;20644;-69
2022/04/05 05:28:12;;;;;;;20.13;11.27;;;2.50;99.90;;;;;;5048488;28;20271;-69
2022/04/05 05:30:39;;;;;;;18.37;11.07;;;2.60;99.90;;;;;;5048854;28;20244;-69
2022/04/05 05:33:06;;;;;;;20.10;11.83;;;2.60;99.90;;;;;;5049075;28;20658;-68
2022/04/05 05:35:33;;;;;;;17.57;11.00;;;2.70;99.90;;;;;;5048494;28;20296;-68
2022/04/05 05:38:00;;;;;;;18.37;10.90;;;2.70;99.90;;;;;;5048356;28;20215;-68
2022/04/05 05:40:27;;;;;;;19.90;11.67;;;2.80;99.90;;;;;;5048460;28;20770;-69
2022/04/05 05:42:58;;;;;;;18.77;11.53;;;2.90;99.90;;;;;;5048472;28;20240;-67
2022/04/05 05:45:26;;;;;;;18.03;11.33;;;3.00;99.90;;;;;;5048723;28;20662;-68
2022/04/05 05:47:53;;;;;;;18.37;11.40;;;3.10;99.90;;;;;;5049047;28;20207;-68
2022/04/05 05:50:20;;;;;;;17.30;10.60;;;3.10;99.90;;;;;;5052250;28;20236;-68
2022/04/05 05:52:47;;;;;;;20.43;12.00;;;3.20;99.90;;;;;;5051721;28;20265;-68
2022/04/05 05:55:16;;;;;;;19.77;11.90;;;3.30;99.90;;;;;;5051938;28;20236;-67
2022/04/05 05:57:43;;;;;;;17.70;11.00;;;3.30;99.90;;;;;;5051707;28;20679;-69
2022/04/05 06:00:17;;;;;;;18.90;11.27;;;3.40;99.90;;;;;;5051872;28;20237;-67
2022/04/05 06:02:45;;;;;;;18.13;11.10;;;3.50;99.90;;;;;;5051747;28;20186;-69
2022/04/05 06:05:12;;;;;;;15.23;10.63;;;3.60;99.90;;;;;;5051453;28;20293;-69
2022/04/05 06:07:41;;;;;;;18.80;11.40;;;3.60;99.90;;;;;;5051628;28;20216;-68
2022/04/05 06:10:10;;;;;;;15.80;10.17;;;3.70;99.90;;;;;;5051609;28;20212;-68
2022/04/05 06:12:38;;;;;;;17.60;10.77;;;3.60;99.90;;;;;;5051667;28;20327;-68
2022/04/05 06:15:08;;;;;;;19.17;10.83;;;3.70;99.90;;;;;;5051451;28;20679;-68
2022/04/05 06:17:38;;;;;;;19.60;10.50;;;3.80;99.90;;;;;;5051803;28;20558;-69
2022/04/05 06:20:06;;;;;;;17.73;11.10;;;3.70;99.90;;;;;;5051541;28;20209;-69
2022/04/05 06:22:41;;;;;;;17.67;10.87;;;3.70;99.90;;;;;;5051633;28;20248;-69
2022/04/05 06:25:08;;;;;;;18.50;11.30;;;3.80;99.90;;;;;;5051427;28;20620;-68
2022/04/05 06:27:37;;;;;;;18.13;11.27;;;3.80;99.90;;;;;;5051311;28;20217;-69
2022/04/05 06:30:05;;;;;;;16.53;10.97;;;3.80;99.90;;;;;;5051417;28;20210;-68
2022/04/05 06:32:32;;;;;;;18.30;11.77;;;3.90;99.90;;;;;;5051102;28;20245;-68
2022/04/05 06:35:01;;;;;;;19.17;11.40;;;3.90;99.90;;;;;;5051253;28;20205;-68
2022/04/05 06:37:28;;;;;;;19.47;10.87;;;4.00;99.90;;;;;;5051426;28;20237;-67
2022/04/05 06:39:55;;;;;;;16.40;10.33;;;4.20;99.90;;;;;;5050810;28;20605;-67
2022/04/05 06:42:22;;;;;;;16.47;10.80;;;4.30;99.90;;;;;;5051330;28;20296;-69
2022/04/05 06:44:49;;;;;;;15.60;10.47;;;4.30;99.90;;;;;;5050809;28;20197;-68
2022/04/05 06:47:16;;;;;;;16.80;10.50;;;4.40;99.90;;;;;;5051177;28;20205;-69
2022/04/05 06:49:43;;;;;;;16.37;10.00;;;4.50;99.90;;;;;;5051091;28;20300;-68
2022/04/05 06:52:11;;;;;;;16.23;10.10;;;4.60;99.90;;;;;;5051191;28;20715;-67
2022/04/05 06:54:38;;;;;;;14.57;9.90;;;4.70;99.90;;;;;;5052668;28;20451;-68
2022/04/05 06:57:05;;;;;;;14.80;9.83;;;4.70;99.90;;;;;;5052670;28;20701;-68
2022/04/05 06:59:32;;;;;;;15.97;10.10;;;4.80;99.90;;;;;;5052066;28;20288;-68
2022/04/05 07:01:59;;;;;;;14.97;9.93;;;4.90;99.90;;;;;;5050825;28;20265;-69
2022/04/05 07:04:26;;;;;;;21.13;10.27;;;5.00;99.90;;;;;;5051222;28;20624;-69
2022/04/05 07:06:53;;;;;;;17.23;10.50;;;5.10;99.90;;;;;;5051095;28;20288;-68
2022/04/05 07:09:22;;;;;;;13.57;9.47;;;5.20;99.90;;;;;;5052111;28;20622;-69
2022/04/05 07:11:50;;;;;;;13.23;9.23;;;5.20;99.90;;;;;;5051202;28;20216;-68
2022/04/05 07:14:17;;;;;;;13.20;8.83;;;5.30;99.90;;;;;;5053321;28;20286;-68
2022/04/05 07:16:44;;;;;;;14.83;9.57;;;5.30;99.90;;;;;;5050407;28;20308;-68
2022/04/05 07:19:11;;;;;;;12.30;9.17;;;5.40;99.90;;;;;;5051039;28;20260;-68
2022/04/05 07:21:38;;;;;;;13.97;8.90;;;5.50;99.90;;;;;;5050469;28;20241;-68
2022/04/05 07:24:05;;;;;;;15.23;9.83;;;5.60;99.90;;;;;;5050103;28;20237;-69
2022/04/05 07:26:33;;;;;;;14.13;9.47;;;5.70;99.90;;;;;;5050527;28;20236;-67
2022/04/05 07:29:00;;;;;;;13.97;9.40;;;5.80;99.90;;;;;;5050174;28;20248;-68
2022/04/05 07:31:27;;;;;;;17.40;9.77;;;5.80;99.90;;;;;;5050215;28;20303;-68
2022/04/05 07:33:54;;;;;;;13.67;9.00;;;5.70;99.90;;;;;;5050273;28;20253;-69
2022/04/05 07:49:00;;;;;;;16.60;10.23;;;5.90;99.90;;;;;;5150450;27;20613;-66
2022/04/05 07:51:27;;;;;;;11.37;8.50;;;6.30;99.90;;;;;;5150491;27;20294;-66
2022/04/05 07:53:54;;;;;;;15.10;9.63;;;6.30;99.90;;;;;;5150862;27;20201;-66
2022/04/05 07:56:21;;;;;;;13.13;9.37;;;6.30;99.90;;;;;;5150413;27;20249;-66
2022/04/05 07:58:48;;;;;;;16.90;9.77;;;6.40;99.90;;;;;;5150169;27;20331;-66
2022/04/05 08:01:15;;;;;;;15.70;10.03;;;6.40;99.90;;;;;;5150719;27;20256;-66
2022/04/05 08:03:42;;;;;;;13.60;9.33;;;6.50;99.90;;;;;;5150338;27;20200;-66
2022/04/05 08:06:10;;;;;;;68.17;30.83;;;6.40;99.90;;;;;;5150739;27;20637;-66
2022/04/05 08:08:37;;;;;;;18.37;11.90;;;6.50;99.90;;;;;;5150351;27;20245;-67
2022/04/05 08:11:04;;;;;;;17.07;11.23;;;6.40;99.90;;;;;;5150642;27;20304;-66
2022/04/05 08:13:31;;;;;;;18.30;11.53;;;6.40;99.90;;;;;;5150441;27;20663;-69
2022/04/05 08:15:58;;;;;;;15.30;9.67;;;6.30;99.90;;;;;;5150202;27;20246;-67
2022/04/05 08:18:25;;;;;;;15.93;10.00;;;6.30;99.90;;;;;;5150282;27;20318;-66
2022/04/05 08:20:52;;;;;;;17.60;9.83;;;6.30;99.90;;;;;;5149927;27;20245;-67
2022/04/05 08:23:20;;;;;;;15.00;9.50;;;6.30;99.90;;;;;;5150016;27;20238;-67
2022/04/05 08:25:47;;;;;;;15.47;10.17;;;6.30;99.90;;;;;;5149849;27;20304;-65
2022/04/05 08:28:14;;;;;;;15.97;10.27;;;6.40;99.90;;;;;;5149702;27;20241;-66
2022/04/05 08:30:41;;;;;;;17.03;10.10;;;6.40;99.90;;;;;;5150010;27;20281;-66
2022/04/05 08:33:08;;;;;;;15.73;9.87;;;6.40;99.90;;;;;;5149942;27;20242;-67
2022/04/05 08:35:35;;;;;;;13.53;9.20;;;6.30;99.90;;;;;;5149926;27;20233;-66
2022/04/05 08:38:02;;;;;;;16.53;9.53;;;6.30;99.90;;;;;;5149446;27;20313;-65
2022/04/05 08:40:30;;;;;;;14.80;9.50;;;6.30;99.90;;;;;;5149787;27;20234;-68
2022/04/05 08:42:58;;;;;;;13.27;9.17;;;6.30;99.90;;;;;;5149645;27;20210;-68
2022/04/05 08:45:27;;;;;;;13.37;9.30;;;6.30;99.90;;;;;;5149338;27;20338;-66
2022/04/05 08:47:56;;;;;;;13.57;9.33;;;6.20;99.90;;;;;;5147225;27;20648;-66
2022/04/05 08:50:24;;;;;;;14.60;10.23;;;6.30;99.90;;;;;;5135622;27;20297;-66
2022/04/05 08:52:54;;;;;;;13.83;9.73;;;6.30;99.90;;;;;;5135676;27;20241;-66
2022/04/05 08:55:21;;;;;;;13.47;9.70;;;6.20;99.90;;;;;;5135417;27;20206;-66
2022/04/05 08:57:49;;;;;;;12.90;9.53;;;6.20;99.90;;;;;;5135466;27;20301;-66
2022/04/05 09:00:19;;;;;;;15.00;9.80;;;6.20;99.90;;;;;;5135278;27;20238;-66
2022/04/05 09:02:57;;;;;;;13.23;9.43;;;6.20;99.90;;;;;;5135689;27;20537;-66
2022/04/05 09:05:29;;;;;;;15.73;9.63;;;6.10;99.90;;;;;;5135629;27;20325;-66
2022/04/05 09:08:16;;;;;;;15.03;10.03;;;6.10;99.90;;;;;;5135334;27;20234;-68
2022/04/05 09:10:44;;;;;;;14.17;9.70;;;6.00;99.90;;;;;;5135903;27;20623;-66
2022/04/05 09:13:17;;;;;;;18.63;10.70;;;6.10;99.90;;;;;;5135585;27;20306;-66
2022/04/05 09:15:47;;;;;;;15.23;10.67;;;6.00;99.90;;;;;;5135203;27;20191;-67
2022/04/05 09:18:14;;;;;;;15.07;10.20;;;6.00;99.90;;;;;;5135294;27;20243;-66
2022/04/05 09:20:49;;;;;;;17.63;10.40;;;6.10;99.90;;;;;;5135142;27;20289;-66
2022/04/05 09:23:34;;;;;;;14.50;10.03;;;6.10;99.90;;;;;;5134943;27;20202;-67
2022/04/05 09:26:03;;;;;;;16.80;10.53;;;6.10;99.90;;;;;;5135315;27;20187;-66
2022/04/05 09:28:34;;;;;;;15.63;10.13;;;6.10;99.90;;;;;;5135017;27;20253;-66
2022/04/05 09:31:03;;;;;;;13.90;10.17;;;6.10;99.90;;;;;;5135042;27;20231;-66
2022/04/05 09:33:32;;;;;;;16.73;10.87;;;6.20;99.90;;;;;;5134471;27;20245;-68
2022/04/05 09:36:08;;;;;;;15.87;10.77;;;6.30;99.90;;;;;;5134706;27;20242;-66
2022/04/05 09:38:36;;;;;;;17.10;10.77;;;6.20;99.90;;;;;;5135143;27;20237;-66
2022/04/05 09:41:14;;;;;;;16.33;10.67;;;6.30;99.90;;;;;;5134984;27;20290;-66
2022/04/05 09:43:54;;;;;;;15.13;10.43;;;6.30;99.90;;;;;;5134665;27;20252;-65
2022/04/05 09:46:21;;;;;;;15.20;10.47;;;6.20;99.90;;;;;;5134829;27;20214;-67
2022/04/05 09:48:48;;;;;;;17.07;10.93;;;6.20;99.90;;;;;;5134546;27;20231;-66
2022/04/05 09:51:16;;;;;;;18.10;10.83;;;6.20;99.90;;;;;;5134712;27;20234;-66
2022/04/05 09:53:50;;;;;;;17.00;10.30;;;6.20;99.90;;;;;;5134660;27;20255;-66
2022/04/05 09:56:19;;;;;;;16.97;10.60;;;6.20;99.90;;;;;;5134751;27;20233;-65
2022/04/05 09:58:49;;;;;;;17.23;10.13;;;6.30;99.90;;;;;;5134593;27;20254;-66
2022/04/05 10:01:20;;;;;;;15.17;10.50;;;6.30;99.90;;;;;;5133212;27;20187;-66
2022/04/05 10:03:58;;;;;;;18.33;10.77;;;6.30;99.90;;;;;;5134381;27;20198;-65
2022/04/05 10:06:26;;;;;;;16.93;10.97;;;6.30;99.90;;;;;;5133976;27;20208;-67
2022/04/05 10:08:55;;;;;;;19.57;11.20;;;6.30;99.90;;;;;;5134111;27;20195;-65
2022/04/05 10:11:25;;;;;;;14.87;10.40;;;6.40;99.90;;;;;;5134006;27;20212;-67
2022/04/05 10:13:52;;;;;;;13.83;10.07;;;6.40;99.90;;;;;;5134092;27;20238;-67
2022/04/05 10:16:23;;;;;;;17.37;10.67;;;6.40;99.90;;;;;;5134097;27;20638;-66
2022/04/05 10:18:52;;;;;;;15.53;9.97;;;6.50;99.90;;;;;;5134238;27;20211;-66
2022/04/05 10:21:21;;;;;;;13.03;8.97;;;6.50;99.90;;;;;;5134087;27;20625;-65
2022/04/05 10:23:49;;;;;;;15.63;9.97;;;6.60;99.90;;;;;;5133819;27;20274;-66
2022/04/05 10:26:18;;;;;;;16.27;9.70;;;6.60;99.90;;;;;;5133506;27;20245;-67
2022/04/05 10:28:49;;;;;;;14.57;9.67;;;6.60;99.90;;;;;;5134327;27;20201;-67
2022/04/05 10:31:22;;;;;;;13.73;9.70;;;6.60;99.90;;;;;;5133566;27;20225;-67
2022/04/05 10:34:00;;;;;;;12.40;8.60;;;6.60;99.90;;;;;;5133802;27;20218;-66
2022/04/05 10:36:27;;;;;;;12.73;8.90;;;6.60;99.90;;;;;;5133413;27;20186;-66
2022/04/05 10:39:15;;;;;;;11.50;8.33;;;6.60;99.90;;;;;;5133087;27;20261;-66
2022/04/05 10:41:43;;;;;;;12.27;8.77;;;6.60;99.90;;;;;;5133811;27;20640;-67
2022/04/05 10:44:27;;;;;;;13.53;8.47;;;6.60;99.90;;;;;;5133635;27;20608;-65
2022/04/05 10:46:58;;;;;;;13.40;8.77;;;6.60;99.90;;;;;;5131936;27;20227;-68
2022/04/05 10:49:35;;;;;;;13.60;8.43;;;6.70;99.90;;;;;;5133457;27;20187;-65
2022/04/05 10:52:08;;;;;;;12.17;8.53;;;6.70;99.90;;;;;;5133195;27;20375;-67
2022/04/05 10:54:40;;;;;;;12.63;8.30;;;6.70;99.90;;;;;;5133600;27;20302;-67
2022/04/05 10:57:17;;;;;;;12.93;8.63;;;6.70;99.90;;;;;;5133027;27;20242;-67
2022/04/05 10:59:49;;;;;;;14.60;8.83;;;6.70;99.90;;;;;;5133460;27;20218;-66
2022/04/05 11:02:38;;;;;;;14.50;8.57;;;6.70;99.90;;;;;;5133220;27;20638;-66
2022/04/05 11:05:35;;;;;;;14.90;8.67;;;6.70;99.90;;;;;;5133117;27;20227;-66
2022/04/05 11:08:19;;;;;;;12.60;8.37;;;6.70;99.90;;;;;;5133084;27;20186;-66
2022/04/05 11:10:51;;;;;;;12.67;8.60;;;6.70;99.90;;;;;;5130088;27;20198;-67
2022/04/05 11:13:21;;;;;;;13.80;8.03;;;6.70;99.90;;;;;;5133026;27;20225;-66
2022/04/05 11:15:51;;;;;;;11.77;8.40;;;6.70;99.90;;;;;;5133222;27;20191;-67
2022/04/05 11:18:21;;;;;;;10.47;7.70;;;6.60;99.90;;;;;;5132710;27;20299;-66
2022/04/05 11:20:51;;;;;;;12.00;8.10;;;6.60;99.90;;;;;;5132832;27;20238;-66
2022/04/05 11:23:19;;;;;;;10.87;7.73;;;6.60;99.90;;;;;;5132716;27;20214;-67
2022/04/05 11:25:47;;;;;;;10.80;7.53;;;6.70;99.90;;;;;;5133060;27;20237;-65
2022/04/05 11:28:16;;;;;;;10.87;7.73;;;6.70;99.90;;;;;;5132905;27;20628;-66
2022/04/05 11:30:49;;;;;;;11.30;7.90;;;6.70;99.90;;;;;;5133045;27;20777;-66
2022/04/05 11:33:41;;;;;;;11.90;8.17;;;6.70;99.90;;;;;;5133107;27;20198;-67
2022/04/05 11:36:13;;;;;;;11.30;8.07;;;6.70;99.90;;;;;;5133025;27;20654;-65
2022/04/05 11:38:41;;;;;;;11.83;7.87;;;6.70;99.90;;;;;;5132879;28;20230;-67
2022/04/05 11:41:11;;;;;;;14.10;7.77;;;6.80;99.90;;;;;;5132843;28;20633;-66
2022/04/05 11:43:41;;;;;;;11.83;8.17;;;6.80;99.90;;;;;;5132664;28;20249;-66
2022/04/05 11:46:11;;;;;;;12.67;8.60;;;6.80;99.90;;;;;;5132889;28;20244;-66
2022/04/05 11:48:43;;;;;;;12.57;8.17;;;6.90;99.90;;;;;;5132495;28;20262;-66
2022/04/05 11:51:13;;;;;;;13.80;8.13;;;7.00;99.90;;;;;;5132712;28;20621;-65
2022/04/05 11:53:41;;;;;;;13.13;8.37;;;7.00;99.90;;;;;;5132919;28;20219;-66
2022/04/05 11:56:16;;;;;;;13.43;8.27;;;7.00;99.90;;;;;;5132454;28;20238;-67
2022/04/05 11:58:46;;;;;;;14.20;7.90;;;7.00;99.90;;;;;;5132796;28;20206;-66
2022/04/05 12:01:15;;;;;;;9.53;7.10;;;7.00;99.90;;;;;;5132667;28;20533;-67
2022/04/05 12:03:44;;;;;;;11.37;7.53;;;7.00;99.90;;;;;;5132462;27;20238;-67
2022/04/05 12:06:13;;;;;;;13.93;8.80;;;7.10;99.90;;;;;;5132629;27;20727;-66
2022/04/05 12:08:40;;;;;;;15.43;8.37;;;7.10;99.90;;;;;;5132469;27;20293;-66
2022/04/05 12:11:09;;;;;;;10.90;7.80;;;7.10;99.90;;;;;;5132423;28;20238;-66
2022/04/05 12:13:37;;;;;;;13.73;8.37;;;7.10;99.90;;;;;;5132636;27;20614;-65
2022/04/05 12:16:06;;;;;;;11.63;7.77;;;7.10;99.90;;;;;;5132446;28;20294;-66
2022/04/05 12:18:33;;;;;;;9.77;7.30;;;7.20;99.90;;;;;;5132205;27;20226;-66
2022/04/05 12:21:02;;;;;;;9.20;6.67;;;7.20;99.90;;;;;;5132448;27;20742;-66
2022/04/05 12:23:32;;;;;;;11.00;6.60;;;7.20;99.90;;;;;;5132934;27;20211;-66
2022/04/05 12:26:11;;;;;;;10.73;7.70;;;7.30;99.90;;;;;;5136254;27;20646;-65
2022/04/05 12:28:40;;;;;;;10.80;6.63;;;7.30;99.90;;;;;;5136236;27;20286;-66
2022/04/05 12:31:09;;;;;;;9.20;7.00;;;7.40;99.90;;;;;;5135943;27;20242;-66
2022/04/05 12:33:37;;;;;;;10.20;6.80;;;7.40;99.90;;;;;;5136326;27;20664;-65
2022/04/05 12:36:05;;;;;;;10.37;6.67;;;7.50;99.90;;;;;;5136079;27;20234;-65
2022/04/05 12:38:34;;;;;;;10.13;6.27;;;7.50;99.90;;;;;;5135725;27;20317;-67
2022/04/05 12:41:03;;;;;;;9.50;6.70;;;7.60;99.90;;;;;;5135823;27;20237;-66
2022/04/05 12:43:29;;;;;;;8.63;6.47;;;7.60;99.90;;;;;;5135901;27;20572;-66
2022/04/05 12:45:56;;;;;;;8.20;6.17;;;7.70;99.90;;;;;;5135878;27;20226;-65
2022/04/05 12:48:23;;;;;;;12.53;6.57;;;7.80;99.90;;;;;;5135752;27;20230;-66
2022/04/05 12:50:52;;;;;;;9.43;6.37;;;7.90;99.90;;;;;;5135524;27;20246;-66
2022/04/05 12:53:27;;;;;;;11.93;7.00;;;8.00;99.90;;;;;;5135929;27;20234;-65
2022/04/05 12:56:03;;;;;;;9.03;5.90;;;8.00;99.90;;;;;;5135430;27;20249;-66
2022/04/05 12:58:46;;;;;;;9.70;6.37;;;8.00;99.90;;;;;;5135532;27;20253;-66
2022/04/05 13:01:21;;;;;;;8.20;5.70;;;8.10;99.90;;;;;;5135477;27;20195;-67
2022/04/05 13:03:48;;;;;;;9.40;6.40;;;8.20;99.90;;;;;;5135666;27;20550;-66